Time;durP1;ratioP1;P1;durP2;ratioP2;P2;SDS_P1;SDS_P2;PMS_P1;PMS_P2;Temp;Humidity;BMP_temperature;BMP_pressure;BME280_temperature;BME280_humidity;BME280_pressure;Samples;Min_cycle;Max_cycle;Signal;HPM_P1;HPM_P2
2023/07/05 00:00:40;;;;;;;7.40;4.93;;;19.70;73.60;;;21.98;50.69;100892.47;4955674;28;20292;-59
2023/07/05 00:03:07;;;;;;;7.80;4.80;;;19.60;74.20;;;21.90;51.16;100880.28;4956381;28;20205;-59
2023/07/05 00:05:35;;;;;;;7.53;4.43;;;19.50;74.60;;;21.84;51.20;100880.44;4956394;28;20593;-58
2023/07/05 00:08:05;;;;;;;6.60;4.53;;;19.40;75.00;;;21.78;51.38;100873.38;4956449;28;20225;-58
2023/07/05 00:10:33;;;;;;;10.77;4.87;;;19.30;75.30;;;21.73;51.78;100852.66;4955870;28;20732;-59
2023/07/05 00:13:00;;;;;;;9.10;4.80;;;19.30;76.30;;;21.71;51.79;100854.78;4956527;28;20322;-57
2023/07/05 00:15:28;;;;;;;5.30;4.30;;;19.20;76.60;;;21.70;52.24;100849.66;4956138;28;20223;-60
2023/07/05 00:17:55;;;;;;;7.23;4.90;;;19.20;76.80;;;21.70;52.35;100826.38;4970957;28;20324;-57
2023/07/05 00:20:23;;;;;;;6.90;4.00;;;19.10;76.70;;;21.76;51.85;100820.03;4975178;28;20219;-58
2023/07/05 00:22:51;;;;;;;7.00;4.23;;;19.10;76.80;;;21.83;52.06;100815.28;4975184;28;20664;-59
2023/07/05 00:25:20;;;;;;;7.13;3.80;;;19.20;77.30;;;21.92;51.82;100807.66;4975198;28;20685;-58
2023/07/05 00:27:48;;;;;;;6.33;5.37;;;19.20;77.70;;;21.99;52.20;100813.66;4975356;28;20239;-58
2023/07/05 00:30:16;;;;;;;6.00;4.47;;;19.20;77.90;;;22.04;52.21;100811.88;4974964;28;20224;-58
2023/07/05 00:32:43;;;;;;;6.73;4.87;;;19.30;77.80;;;22.05;52.25;100799.28;4975247;28;20609;-59
2023/07/05 00:35:10;;;;;;;8.33;4.47;;;19.30;77.70;;;22.09;51.96;100793.16;4975130;28;20193;-58
2023/07/05 00:37:37;;;;;;;8.73;4.80;;;19.40;77.90;;;22.08;51.79;100790.75;4974881;28;20571;-57
2023/07/05 00:40:06;;;;;;;9.50;5.13;;;19.40;77.80;;;22.07;51.43;100783.75;4974798;28;20577;-59
2023/07/05 00:42:35;;;;;;;6.93;4.10;;;19.40;77.40;;;22.05;51.48;100775.16;4975032;28;20564;-60
2023/07/05 00:45:54;;;;;;;8.20;5.00;;;19.40;77.30;;;21.98;51.98;100769.16;4974788;28;20283;-57
2023/07/05 00:48:29;;;;;;;11.00;5.13;;;19.40;77.50;;;22.00;51.53;100767.03;4975077;28;20205;-56
2023/07/05 00:51:00;;;;;;;9.47;4.43;;;19.30;77.10;;;21.99;51.66;100765.41;4969791;28;20193;-58
2023/07/05 00:53:29;;;;;;;6.63;5.03;;;19.30;77.00;;;21.97;51.98;100748.75;4970239;28;20645;-56
2023/07/05 00:56:06;;;;;;;9.17;4.93;;;19.30;77.60;;;21.92;51.89;100754.88;4956016;28;20193;-59
2023/07/05 00:58:34;;;;;;;8.00;4.67;;;19.30;77.40;;;21.89;51.74;100744.66;4955328;28;20240;-57
2023/07/05 01:01:01;;;;;;;6.63;4.40;;;19.30;77.30;;;21.89;51.84;100735.81;4955757;28;20194;-59
2023/07/05 01:03:31;;;;;;;6.23;4.83;;;19.30;77.30;;;21.89;51.92;100733.13;4955573;28;20248;-60
2023/07/05 01:06:00;;;;;;;9.47;4.97;;;19.30;77.40;;;21.93;51.65;100726.19;4955861;28;20661;-57
2023/07/05 01:08:29;;;;;;;7.37;4.13;;;19.30;77.70;;;21.95;51.41;100724.88;4955079;28;20224;-57
2023/07/05 01:11:09;;;;;;;8.33;4.77;;;19.30;77.60;;;21.96;51.74;100718.47;4955651;28;20658;-57
2023/07/05 01:13:45;;;;;;;10.10;4.90;;;19.30;77.40;;;21.94;51.38;100703.72;4961572;28;20203;-59
2023/07/05 01:16:37;;;;;;;6.67;4.67;;;19.30;77.00;;;21.87;51.42;100687.00;4972215;28;20593;-58
2023/07/05 01:19:31;;;;;;;7.57;4.33;;;19.30;76.50;;;21.86;51.48;100680.81;4954982;28;20213;-56
2023/07/05 01:22:06;;;;;;;8.53;5.00;;;19.30;76.40;;;21.83;50.83;100685.81;4955118;28;20273;-59
2023/07/05 01:25:17;;;;;;;6.57;4.43;;;19.30;75.70;;;21.71;50.83;100671.72;4955262;28;20197;-59
2023/07/05 01:28:23;;;;;;;7.80;4.17;;;19.30;75.90;;;21.74;51.39;100669.38;4956081;28;20217;-58
2023/07/05 01:31:43;;;;;;;11.00;4.87;;;19.20;75.70;;;21.68;50.82;100656.97;4958676;28;20216;-56
2023/07/05 01:34:25;;;;;;;6.53;5.07;;;19.20;75.30;;;21.66;50.61;100652.91;4957026;29;20765;-61
2023/07/05 01:36:52;;;;;;;7.90;4.30;;;19.20;75.00;;;21.72;50.21;100651.94;4959060;28;20188;-58
2023/07/05 01:39:19;;;;;;;7.80;5.23;;;19.20;75.10;;;21.77;51.06;100652.00;4958198;28;20208;-57
2023/07/05 01:41:46;;;;;;;6.87;4.37;;;19.20;75.50;;;21.75;50.70;100646.09;4958893;28;20181;-58
2023/07/05 01:44:17;;;;;;;6.77;3.83;;;19.20;75.30;;;21.76;50.56;100631.59;4958407;28;20201;-55
2023/07/05 01:46:56;;;;;;;10.63;4.47;;;19.20;75.10;;;21.79;50.54;100625.75;4958785;28;20217;-59
2023/07/05 01:49:45;;;;;;;8.20;4.77;;;19.20;75.10;;;21.77;50.29;100614.47;4958185;28;20248;-59
2023/07/05 01:52:27;;;;;;;7.03;4.07;;;19.30;75.00;;;21.76;49.74;100615.53;4960060;28;20231;-60
2023/07/05 01:55:06;;;;;;;5.90;4.23;;;19.30;74.20;;;21.82;49.91;100598.47;4958981;28;20363;-60
2023/07/05 01:57:41;;;;;;;5.97;3.60;;;19.30;74.10;;;21.84;49.60;100596.34;4958987;28;20558;-59
2023/07/05 02:00:15;;;;;;;7.27;3.90;;;19.30;73.60;;;21.77;48.99;100587.69;4958520;28;20231;-59
2023/07/05 02:02:48;;;;;;;6.83;4.13;;;19.30;73.80;;;21.79;49.57;100577.50;4958856;28;20220;-58
2023/07/05 02:05:19;;;;;;;6.70;4.37;;;19.30;73.10;;;21.80;49.05;100574.56;4958597;28;20227;-59
2023/07/05 02:07:46;;;;;;;8.17;4.50;;;19.30;72.80;;;21.81;49.49;100576.19;4958680;28;20202;-59
2023/07/05 02:10:14;;;;;;;8.43;4.30;;;19.30;72.60;;;21.80;49.33;100565.75;4967762;28;20228;-59
2023/07/05 02:12:41;;;;;;;7.37;4.27;;;19.40;72.90;;;21.73;49.29;100579.31;4973733;28;20208;-57
2023/07/05 02:15:09;;;;;;;6.83;4.20;;;19.30;72.90;;;21.67;50.51;100571.47;4958190;28;20654;-58
2023/07/05 02:17:35;;;;;;;4.70;4.20;;;19.30;74.10;;;21.52;51.45;100570.25;4958375;28;20280;-60
2023/07/05 02:20:06;;;;;;;11.90;8.00;;;19.30;75.60;;;21.39;53.79;100567.97;4958078;28;20209;-57
2023/07/05 02:22:34;;;;;;;9.67;5.10;;;19.20;78.00;;;21.20;54.11;100552.44;4958129;28;20197;-60
2023/07/05 02:25:01;;;;;;;6.07;4.50;;;19.10;78.00;;;20.94;54.62;100544.03;4958046;28;20610;-60
2023/07/05 02:27:28;;;;;;;8.57;5.10;;;19.00;79.00;;;20.72;56.29;100535.19;4958265;28;20296;-56
2023/07/05 02:29:56;;;;;;;8.07;5.10;;;18.80;80.30;;;20.59;57.09;100524.81;4957593;28;20221;-60
2023/07/05 02:32:24;;;;;;;8.13;4.90;;;18.70;81.30;;;20.46;57.54;100521.69;4957796;28;20217;-59
2023/07/05 02:34:52;;;;;;;5.53;4.70;;;18.50;82.00;;;20.35;58.18;100520.69;4957999;28;20601;-58
2023/07/05 02:37:20;;;;;;;5.90;5.40;;;18.40;83.00;;;20.24;58.62;100525.09;4957941;28;20197;-59
2023/07/05 02:39:53;;;;;;;10.87;5.77;;;18.30;83.70;;;20.13;59.22;100520.56;4956322;28;20229;-59
2023/07/05 02:42:20;;;;;;;11.43;6.07;;;18.20;84.40;;;20.06;59.81;100519.94;4957989;28;20229;-59
2023/07/05 02:44:48;;;;;;;10.87;5.70;;;18.10;85.10;;;20.04;59.60;100515.91;4957639;28;20593;-56
2023/07/05 02:47:18;;;;;;;10.47;6.03;;;18.00;85.40;;;20.03;59.98;100509.75;4957664;28;20209;-57
2023/07/05 02:49:45;;;;;;;11.10;5.90;;;18.00;85.90;;;19.93;59.60;100520.25;4957284;28;20304;-58
2023/07/05 02:52:13;;;;;;;12.23;6.57;;;17.90;85.90;;;19.90;60.71;100520.72;4973923;28;20283;-57
2023/07/05 02:54:40;;;;;;;9.57;5.70;;;17.90;87.30;;;19.82;60.61;100507.78;4976758;28;20191;-63
2023/07/05 02:57:08;;;;;;;12.57;6.73;;;17.80;87.30;;;19.83;60.86;100509.38;4977671;28;20200;-58
2023/07/05 02:59:35;;;;;;;8.67;6.10;;;17.70;87.80;;;19.72;61.14;100496.09;4977064;28;20236;-58
2023/07/05 03:02:03;;;;;;;10.70;5.83;;;17.70;87.90;;;19.67;61.43;100488.78;4976113;28;20223;-58
2023/07/05 03:04:30;;;;;;;9.13;6.20;;;17.60;87.80;;;19.69;61.39;100485.88;4976523;28;20204;-60
2023/07/05 03:06:57;;;;;;;8.07;5.63;;;17.60;88.30;;;19.63;60.77;100485.00;4976390;28;20200;-60
2023/07/05 03:09:24;;;;;;;9.73;5.97;;;17.50;87.70;;;19.70;61.01;100479.50;4968279;28;20717;-57
2023/07/05 03:11:51;;;;;;;9.83;6.07;;;17.50;87.90;;;19.61;60.74;100467.59;4957240;28;20211;-58
2023/07/05 03:14:19;;;;;;;8.70;6.20;;;17.50;87.70;;;19.67;60.99;100462.09;4957235;28;20216;-58
2023/07/05 03:16:46;;;;;;;9.73;6.23;;;17.50;88.20;;;19.64;60.79;100459.91;4957164;28;20280;-58
2023/07/05 03:19:13;;;;;;;6.93;5.87;;;17.50;88.00;;;19.60;61.08;100456.09;4956520;28;20213;-60
2023/07/05 03:21:41;;;;;;;8.33;5.93;;;17.50;88.20;;;19.64;61.51;100446.53;4957086;28;20371;-57
2023/07/05 03:24:08;;;;;;;10.07;6.20;;;17.50;88.60;;;19.65;61.69;100448.19;4956824;28;20284;-60
2023/07/05 03:26:35;;;;;;;8.50;5.87;;;17.50;88.80;;;19.74;61.30;100453.91;4956813;28;20268;-59
2023/07/05 03:29:02;;;;;;;9.37;6.23;;;17.50;88.90;;;19.76;61.24;100428.59;4956984;28;20225;-60
2023/07/05 03:31:31;;;;;;;9.27;6.60;;;17.50;89.10;;;19.71;61.19;100428.50;4956956;28;20276;-56
2023/07/05 03:33:58;;;;;;;9.37;6.77;;;17.50;88.90;;;19.68;61.38;100417.50;4956660;28;20669;-57
2023/07/05 03:36:25;;;;;;;7.70;6.37;;;17.50;89.20;;;19.68;61.88;100421.00;4958014;28;20599;-59
2023/07/05 03:38:52;;;;;;;6.80;6.10;;;17.50;89.60;;;19.67;62.02;100424.69;4963836;28;20213;-54
2023/07/05 03:41:23;;;;;;;7.90;7.10;;;17.50;89.90;;;19.71;61.90;100425.81;4956364;28;20244;-55
2023/07/05 03:43:54;;;;;;;11.77;6.60;;;17.50;90.00;;;19.76;61.46;100411.75;4956335;28;20705;-55
2023/07/05 03:46:22;;;;;;;7.83;6.60;;;17.50;89.90;;;19.79;61.94;100416.63;4956680;28;20276;-60
2023/07/05 03:48:50;;;;;;;9.67;6.63;;;17.50;90.10;;;19.77;62.04;100402.69;4956318;28;20304;-60
2023/07/05 03:51:21;;;;;;;12.00;6.67;;;17.50;90.10;;;19.75;62.15;100405.63;4957062;28;20615;-59
2023/07/05 03:53:53;;;;;;;9.57;7.17;;;17.50;90.10;;;19.73;61.69;100407.69;4956509;28;20217;-61
2023/07/05 03:56:21;;;;;;;10.43;6.97;;;17.50;90.10;;;19.68;62.36;100399.63;4956361;28;20232;-59
2023/07/05 03:58:48;;;;;;;10.27;6.53;;;17.50;90.20;;;19.64;62.18;100392.31;4956057;28;20209;-58
2023/07/05 04:01:19;;;;;;;9.03;6.07;;;17.40;90.20;;;19.65;62.36;100386.75;4956125;28;20195;-61
2023/07/05 04:03:51;;;;;;;9.03;7.20;;;17.40;90.20;;;19.60;62.54;100381.31;4973884;28;20204;-58
2023/07/05 04:06:19;;;;;;;10.00;5.83;;;17.40;90.20;;;19.51;62.83;100374.78;4963106;28;20216;-60
2023/07/05 04:08:46;;;;;;;7.53;6.60;;;17.40;90.30;;;19.51;62.71;100369.44;4956064;28;20225;-55
2023/07/05 04:11:13;;;;;;;9.70;6.50;;;17.40;90.40;;;19.48;63.21;100377.91;4956086;28;20284;-59
2023/07/05 04:13:40;;;;;;;7.60;6.83;;;17.30;90.50;;;19.52;63.13;100365.69;4956498;28;20284;-56
2023/07/05 04:16:12;;;;;;;8.97;6.50;;;17.30;90.60;;;19.44;63.39;100353.56;4956166;28;20197;-60
2023/07/05 04:18:42;;;;;;;8.27;6.90;;;17.30;90.60;;;19.46;63.60;100339.97;4955914;28;20190;-58
2023/07/05 04:21:12;;;;;;;9.17;6.60;;;17.30;90.70;;;19.46;63.48;100331.97;4956041;28;20264;-57
2023/07/05 04:23:40;;;;;;;9.07;7.00;;;17.30;90.80;;;19.39;63.20;100316.13;4956201;28;20268;-58
2023/07/05 04:26:10;;;;;;;15.17;7.23;;;17.20;90.60;;;19.41;63.17;100307.84;4955999;28;20245;-60
2023/07/05 04:28:40;;;;;;;7.90;6.60;;;17.30;90.90;;;19.34;63.06;100304.50;4955294;28;20221;-58
2023/07/05 04:31:17;;;;;;;10.50;7.10;;;17.20;90.50;;;19.35;63.36;100322.94;4954183;28;20189;-58
2023/07/05 04:33:45;;;;;;;8.40;6.63;;;17.20;90.60;;;19.30;63.20;100322.06;4956134;28;20197;-60
2023/07/05 04:36:13;;;;;;;10.07;7.73;;;17.20;90.60;;;19.30;63.38;100316.72;4955254;28;20203;-58
2023/07/05 04:38:54;;;;;;;7.47;6.30;;;17.20;90.70;;;19.31;63.85;100310.31;4955219;28;20278;-58
2023/07/05 04:41:22;;;;;;;11.20;8.40;;;17.20;91.00;;;19.29;64.22;100297.22;4955465;28;20209;-58
2023/07/05 04:43:51;;;;;;;9.57;7.60;;;17.20;91.10;;;19.36;64.27;100295.22;4955204;28;20280;-60
2023/07/05 04:46:18;;;;;;;8.40;7.40;;;17.20;91.30;;;19.46;63.72;100281.25;4955538;28;20197;-60
2023/07/05 04:48:45;;;;;;;11.53;8.60;;;17.30;91.30;;;19.58;63.80;100284.63;4955159;28;20264;-59
2023/07/05 04:51:14;;;;;;;9.13;7.57;;;17.30;91.50;;;19.56;63.98;100279.50;4963920;28;20224;-59
2023/07/05 04:53:40;;;;;;;9.70;7.53;;;17.30;91.40;;;19.59;64.87;100270.22;4974964;28;20623;-59
2023/07/05 04:56:12;;;;;;;8.47;7.57;;;17.30;91.80;;;19.57;64.85;100275.00;4974736;28;20200;-58
2023/07/05 04:58:40;;;;;;;9.53;7.33;;;17.30;92.00;;;19.56;65.53;100268.06;4974249;28;20200;-60
2023/07/05 05:01:08;;;;;;;8.57;7.77;;;17.30;92.30;;;19.47;65.76;100269.50;4973622;28;20197;-58
2023/07/05 05:03:35;;;;;;;10.77;8.20;;;17.30;92.40;;;19.35;66.02;100263.44;4954865;28;20185;-60
2023/07/05 05:06:02;;;;;;;9.07;7.80;;;17.20;92.50;;;19.29;66.02;100272.38;4955304;28;20682;-59
2023/07/05 05:08:31;;;;;;;11.27;8.07;;;17.20;92.70;;;19.32;66.44;100274.59;4954703;28;20209;-60
2023/07/05 05:11:01;;;;;;;8.70;7.80;;;17.10;92.90;;;19.24;66.15;100277.63;4955345;28;20193;-59
2023/07/05 05:13:31;;;;;;;10.47;7.70;;;17.10;92.90;;;19.22;66.34;100266.41;4955264;28;20193;-57
2023/07/05 05:15:59;;;;;;;10.83;8.83;;;17.00;93.00;;;19.28;67.02;100271.56;4955013;28;20550;-59
2023/07/05 05:18:29;;;;;;;10.77;7.97;;;17.00;93.50;;;19.32;66.76;100261.22;4954113;28;20658;-60
2023/07/05 05:20:57;;;;;;;8.70;7.67;;;17.00;93.40;;;19.42;67.24;100266.78;4955171;28;20204;-58
2023/07/05 05:23:25;;;;;;;12.87;8.13;;;17.00;93.50;;;19.52;66.96;100277.56;4955076;28;20196;-60
2023/07/05 05:25:53;;;;;;;9.77;8.27;;;17.10;93.60;;;19.55;66.93;100272.56;4954919;28;20201;-60
2023/07/05 05:28:21;;;;;;;10.70;7.97;;;17.10;93.60;;;19.62;66.42;100263.56;4954476;28;20308;-60
2023/07/05 05:30:49;;;;;;;8.57;7.77;;;17.20;93.60;;;19.72;66.18;100261.88;4954814;28;20740;-55
2023/07/05 05:33:17;;;;;;;9.83;8.57;;;17.20;93.60;;;19.78;66.49;100271.56;4954874;28;20666;-59
2023/07/05 05:35:49;;;;;;;8.90;8.00;;;17.30;93.60;;;19.87;65.88;100274.63;4954972;28;20228;-57
2023/07/05 05:38:18;;;;;;;8.97;8.03;;;17.40;93.50;;;19.89;65.33;100268.00;4955068;28;20272;-60
2023/07/05 05:40:46;;;;;;;10.63;7.80;;;17.40;93.20;;;19.88;65.28;100266.34;4956767;28;20272;-60
2023/07/05 05:43:14;;;;;;;9.70;8.47;;;17.40;93.10;;;19.89;65.71;100262.66;4959570;28;20288;-64
2023/07/05 05:45:42;;;;;;;9.30;8.30;;;17.50;93.10;;;19.91;65.26;100265.88;4954615;28;20280;-58
2023/07/05 05:48:09;;;;;;;10.53;8.57;;;17.50;92.90;;;19.88;65.27;100265.53;4954724;28;20233;-59
2023/07/05 05:50:36;;;;;;;8.70;7.77;;;17.50;92.90;;;19.75;65.58;100264.06;4955646;28;20228;-58
2023/07/05 05:53:03;;;;;;;9.80;7.90;;;17.40;93.00;;;19.69;66.23;100266.88;4954596;28;20273;-59
2023/07/05 05:55:30;;;;;;;10.43;8.93;;;17.40;93.20;;;19.66;66.95;100262.06;4962542;28;20215;-59
2023/07/05 05:57:57;;;;;;;11.03;8.30;;;17.40;93.60;;;19.58;67.02;100258.75;4955054;28;20292;-56
2023/07/05 06:00:25;;;;;;;11.60;8.67;;;17.30;93.60;;;19.62;67.10;100272.41;4954148;29;20215;-61
2023/07/05 06:02:53;;;;;;;11.53;8.13;;;17.30;93.70;;;19.49;67.29;100268.19;4969463;28;20200;-60
2023/07/05 06:05:20;;;;;;;9.70;8.40;;;17.20;93.80;;;19.37;67.67;100264.03;4973967;28;20546;-59
2023/07/05 06:07:47;;;;;;;9.67;8.67;;;17.20;94.00;;;19.34;68.51;100269.81;4973867;28;20228;-60
2023/07/05 06:10:14;;;;;;;10.00;8.43;;;17.20;94.20;;;19.33;68.66;100254.81;4973907;28;20598;-59
2023/07/05 06:12:41;;;;;;;10.23;9.00;;;17.10;94.30;;;19.42;68.34;100256.09;4973628;28;20227;-62
2023/07/05 06:15:12;;;;;;;8.97;8.07;;;17.20;94.40;;;19.47;68.60;100253.47;4976651;28;20216;-60
2023/07/05 06:17:41;;;;;;;10.33;7.77;;;17.20;94.40;;;19.53;68.01;100256.00;4977102;28;20220;-60
2023/07/05 06:20:10;;;;;;;9.93;8.20;;;17.20;94.40;;;19.64;67.86;100250.78;4976844;28;20232;-60
2023/07/05 06:22:39;;;;;;;8.67;7.87;;;17.30;94.40;;;19.69;67.84;100250.84;4977113;28;20181;-61
2023/07/05 06:25:07;;;;;;;9.87;8.80;;;17.30;94.40;;;19.65;67.84;100253.22;4976053;28;20206;-60
2023/07/05 06:27:34;;;;;;;8.97;7.60;;;17.30;94.40;;;19.67;68.04;100251.09;4977595;28;20200;-61
2023/07/05 06:30:02;;;;;;;9.27;8.27;;;17.40;94.40;;;19.76;67.56;100243.47;4976891;28;20276;-59
2023/07/05 06:32:32;;;;;;;10.00;8.60;;;17.40;94.40;;;19.89;67.48;100241.28;4976757;28;20213;-58
2023/07/05 06:35:00;;;;;;;9.53;8.63;;;17.50;94.50;;;20.00;67.59;100252.88;4976600;28;20197;-62
2023/07/05 06:37:28;;;;;;;8.83;8.00;;;17.60;94.50;;;20.14;67.36;100243.44;4976784;28;20228;-58
2023/07/05 06:39:55;;;;;;;10.37;7.77;;;17.60;94.50;;;20.25;66.59;100245.22;4976162;28;20224;-59
2023/07/05 06:42:22;;;;;;;8.93;7.83;;;17.70;94.50;;;20.25;67.00;100243.34;4976797;28;20201;-57
2023/07/05 06:44:49;;;;;;;8.40;7.47;;;17.70;94.30;;;20.32;66.79;100239.69;4976435;28;20630;-59
2023/07/05 06:47:16;;;;;;;8.77;7.37;;;17.80;94.30;;;20.29;66.64;100232.16;4975508;28;20239;-58
2023/07/05 06:49:43;;;;;;;8.23;7.30;;;17.80;94.20;;;20.38;66.74;100244.00;4976289;28;20636;-60
2023/07/05 06:52:11;;;;;;;7.83;6.60;;;17.90;94.30;;;20.43;66.69;100252.09;4975379;28;20208;-60
2023/07/05 06:54:38;;;;;;;8.87;7.30;;;18.00;94.30;;;20.54;66.76;100243.13;4976306;28;20279;-59
2023/07/05 06:57:06;;;;;;;7.47;6.70;;;18.00;94.20;;;20.57;66.08;100247.97;4976433;28;20193;-59
2023/07/05 06:59:33;;;;;;;8.47;7.47;;;18.10;94.20;;;20.62;66.16;100266.75;4975905;28;20232;-57
2023/07/05 07:02:01;;;;;;;7.13;6.43;;;18.20;94.00;;;20.77;66.38;100265.03;4968491;28;20231;-59
2023/07/05 07:04:29;;;;;;;7.17;6.43;;;18.20;94.00;;;20.92;65.72;100272.38;4957418;28;20221;-60
2023/07/05 07:06:56;;;;;;;8.73;6.77;;;18.30;94.10;;;21.03;65.03;100284.81;4960287;28;20193;-58
2023/07/05 07:09:25;;;;;;;6.27;5.27;;;18.30;93.90;;;20.90;62.07;100272.66;4958072;28;20217;-60
2023/07/05 07:11:52;;;;;;;6.40;5.20;;;18.30;91.80;;;20.93;62.32;100269.47;4958168;28;20197;-58
2023/07/05 07:14:19;;;;;;;5.27;4.10;;;18.40;91.50;;;20.93;60.63;100287.38;4960733;28;20201;-60
2023/07/05 07:16:47;;;;;;;4.57;3.60;;;18.40;90.20;;;20.81;57.94;100273.34;4971155;28;20225;-61
2023/07/05 07:19:14;;;;;;;3.70;3.40;;;18.40;86.10;;;20.87;56.79;100275.03;4956262;28;20539;-57
2023/07/05 07:21:40;;;;;;;6.27;3.70;;;18.50;85.10;;;20.90;54.78;100282.53;4956732;29;20208;-57
2023/07/05 07:24:08;;;;;;;3.33;2.77;;;18.50;82.10;;;21.07;55.46;100285.94;4957399;28;20642;-60
2023/07/05 07:26:37;;;;;;;4.47;2.77;;;18.60;83.60;;;21.24;55.45;100275.91;4956166;28;20208;-61
2023/07/05 07:29:04;;;;;;;4.77;3.07;;;18.70;84.20;;;21.24;53.73;100267.88;4957417;28;20265;-60
2023/07/05 07:31:33;;;;;;;3.37;2.87;;;18.70;80.90;;;21.29;53.07;100284.00;4967184;28;20193;-60
2023/07/05 07:34:02;;;;;;;2.90;2.60;;;18.80;80.00;;;21.31;52.77;100287.22;4956247;28;20653;-60
2023/07/05 07:36:33;;;;;;;2.97;2.40;;;18.80;80.00;;;21.38;52.84;100282.47;4965118;28;20276;-62
2023/07/05 07:39:00;;;;;;;4.30;3.10;;;18.90;80.00;;;21.42;52.63;100275.50;4975467;28;20348;-62
2023/07/05 07:41:30;;;;;;;3.93;3.07;;;19.00;79.70;;;21.48;52.94;100287.91;4975061;28;20193;-59
2023/07/05 07:44:06;;;;;;;2.83;2.40;;;19.00;80.00;;;21.65;53.38;100278.91;4967074;28;20305;-59
2023/07/05 07:46:34;;;;;;;4.80;2.50;;;19.10;80.90;;;21.79;52.97;100272.81;4959267;28;20237;-58
2023/07/05 07:49:04;;;;;;;3.47;2.77;;;19.20;80.30;;;21.88;52.27;100275.84;4955760;28;20221;-60
2023/07/05 07:51:37;;;;;;;3.80;2.47;;;19.30;79.60;;;22.00;51.43;100279.13;4956997;28;20279;-61
2023/07/05 07:54:12;;;;;;;3.30;2.60;;;19.40;78.80;;;22.18;52.13;100286.69;4959898;28;20279;-59
2023/07/05 07:56:41;;;;;;;5.27;2.87;;;19.40;79.40;;;22.18;49.43;100292.06;4968561;28;20196;-60
2023/07/05 07:59:10;;;;;;;4.30;2.83;;;19.50;76.10;;;21.94;48.81;100282.84;4959566;28;20217;-60
2023/07/05 08:01:39;;;;;;;3.20;2.80;;;19.50;74.40;;;21.97;49.85;100290.34;4961288;28;20201;-61
2023/07/05 08:04:09;;;;;;;3.67;2.70;;;19.60;74.70;;;22.08;49.53;100302.78;4973305;28;20215;-60
2023/07/05 08:06:40;;;;;;;3.40;3.00;;;19.70;74.60;;;22.29;48.70;100279.53;4975371;28;20235;-61
2023/07/05 08:09:11;;;;;;;4.33;3.20;;;19.70;74.00;;;22.61;49.70;100290.91;4974613;28;20307;-59
2023/07/05 08:11:41;;;;;;;5.23;3.23;;;19.90;75.50;;;22.48;46.45;100297.56;4975281;28;20617;-59
2023/07/05 08:14:13;;;;;;;4.27;2.80;;;19.90;69.60;;;22.57;45.22;100282.56;4974991;28;20193;-60
2023/07/05 08:16:40;;;;;;;3.97;2.97;;;19.90;68.30;;;22.77;46.15;100312.16;4976046;28;20251;-60
2023/07/05 08:19:08;;;;;;;6.17;3.33;;;20.00;70.60;;;22.65;44.18;100303.56;4973237;28;20220;-59
2023/07/05 08:21:36;;;;;;;3.53;3.23;;;20.00;67.30;;;22.90;44.68;100287.50;4974078;28;20200;-61
2023/07/05 08:24:04;;;;;;;3.23;2.93;;;20.20;68.00;;;23.60;43.97;100299.38;4964380;28;20294;-60
2023/07/05 08:26:51;;;;;;;3.20;2.90;;;20.40;68.30;;;23.95;42.47;100307.34;4973494;28;20583;-60
2023/07/05 08:29:20;;;;;;;5.00;3.10;;;20.70;66.30;;;23.86;42.10;100309.00;4962420;28;20219;-59
2023/07/05 08:31:48;;;;;;;4.93;3.00;;;20.80;64.90;;;23.66;42.28;100319.78;4984647;28;20546;-59
2023/07/05 08:34:16;;;;;;;4.53;2.97;;;20.90;64.20;;;23.59;42.66;100305.81;4968345;28;20201;-59
2023/07/05 08:36:45;;;;;;;4.03;3.27;;;21.00;64.70;;;23.72;42.29;100318.72;4973592;28;20205;-59
2023/07/05 08:39:12;;;;;;;3.60;3.30;;;21.00;65.20;;;23.71;42.83;100319.78;4967184;28;20391;-62
2023/07/05 08:42:23;;;;;;;4.83;3.47;;;21.00;65.00;;;23.61;42.72;100322.47;4974877;28;20533;-62
2023/07/05 08:45:07;;;;;;;3.37;3.07;;;21.00;64.80;;;23.51;43.00;100327.84;4970763;28;20642;-59
2023/07/05 08:47:46;;;;;;;5.00;3.63;;;21.00;64.80;;;23.26;43.35;100325.94;4974036;28;20283;-61
2023/07/05 08:50:27;;;;;;;3.53;3.07;;;20.90;65.30;;;22.98;43.33;100306.84;4978623;28;20266;-61
2023/07/05 08:53:05;;;;;;;4.60;3.40;;;20.70;64.40;;;22.92;43.32;100305.22;4973212;28;20185;-59
2023/07/05 08:55:53;;;;;;;4.37;3.27;;;20.50;64.00;;;24.05;40.54;100318.09;4976841;28;20223;-59
2023/07/05 08:58:25;;;;;;;3.93;3.03;;;20.70;64.60;;;25.19;38.66;100317.03;4971796;28;20636;-60
2023/07/05 09:00:59;;;;;;;4.70;2.63;;;21.00;62.60;;;26.03;36.14;100304.94;4957227;28;21020;-58
2023/07/05 09:03:28;;;;;;;6.00;3.30;;;21.60;59.50;;;26.66;36.02;100309.03;4969779;28;20224;-59
2023/07/05 09:06:15;;;;;;;5.47;2.63;;;22.10;59.10;;;28.03;34.77;100302.22;4975329;28;20235;-62
2023/07/05 09:09:11;;;;;;;3.53;2.47;;;22.80;58.70;;;29.70;33.46;100293.78;4974545;28;20192;-62
2023/07/05 09:11:57;;;;;;;2.80;2.60;;;23.60;58.40;;;30.50;27.19;100294.28;4970681;28;20193;-59
2023/07/05 09:14:41;;;;;;;3.47;2.57;;;24.40;51.60;;;29.51;29.30;100307.59;4976784;28;20299;-60
2023/07/05 09:17:23;;;;;;;3.37;2.57;;;24.70;48.70;;;28.18;29.84;100299.22;4968020;28;20184;-59
2023/07/05 09:20:04;;;;;;;5.30;3.07;;;24.80;48.00;;;27.42;31.86;100308.72;4975202;28;20225;-60
2023/07/05 09:22:37;;;;;;;5.70;2.37;;;24.60;47.90;;;27.06;33.00;100318.47;4978486;28;20304;-60
2023/07/05 09:25:10;;;;;;;3.50;2.23;;;24.40;49.20;;;26.33;31.90;100315.41;4972663;28;20209;-58
2023/07/05 09:27:49;;;;;;;3.77;2.17;;;23.70;47.30;;;25.48;33.09;100312.47;4977736;28;20209;-57
2023/07/05 09:30:25;;;;;;;4.57;1.90;;;23.30;47.90;;;24.78;34.88;100321.06;4973121;28;20729;-60
2023/07/05 09:33:07;;;;;;;4.97;2.50;;;22.80;49.40;;;24.25;35.95;100327.22;4978857;28;20253;-60
2023/07/05 09:35:39;;;;;;;2.37;2.03;;;22.40;50.70;;;23.97;36.62;100340.16;4977945;28;20201;-59
2023/07/05 09:38:18;;;;;;;3.00;2.17;;;22.00;51.50;;;23.61;37.39;100343.97;4973279;28;20203;-61
2023/07/05 09:40:50;;;;;;;4.03;2.50;;;21.70;52.50;;;23.30;38.24;100343.13;4975996;28;20344;-60
2023/07/05 09:43:30;;;;;;;3.73;1.90;;;21.40;53.70;;;23.30;38.61;100347.69;4982426;28;20235;-62
2023/07/05 09:46:03;;;;;;;4.03;2.13;;;21.30;55.00;;;23.08;39.60;100339.91;4978018;28;20284;-60
2023/07/05 09:48:42;;;;;;;2.57;2.37;;;21.00;56.20;;;22.90;40.13;100353.81;4982058;28;20578;-60
2023/07/05 09:51:11;;;;;;;2.40;2.20;;;20.90;56.90;;;22.92;40.40;100362.41;4983259;28;20235;-57
2023/07/05 09:53:45;;;;;;;2.43;2.23;;;20.80;57.50;;;22.55;40.47;100362.53;4985165;28;20568;-59
2023/07/05 09:56:16;;;;;;;2.63;1.97;;;20.60;57.40;;;22.52;40.92;100372.97;4972489;28;20246;-59
2023/07/05 09:58:44;;;;;;;3.77;2.17;;;20.50;57.90;;;22.42;40.93;100368.34;4976516;28;20231;-59
2023/07/05 10:01:18;;;;;;;2.67;1.90;;;20.30;58.20;;;23.14;40.33;100372.91;4972866;28;20649;-61
2023/07/05 10:03:56;;;;;;;2.80;2.00;;;20.40;58.70;;;24.16;38.26;100357.34;4972404;28;20201;-61
2023/07/05 10:06:27;;;;;;;5.43;2.20;;;20.60;58.50;;;24.52;37.13;100354.53;4975606;28;20760;-60
2023/07/05 10:09:00;;;;;;;3.40;2.03;;;21.00;57.40;;;24.77;37.16;100357.94;4976042;28;20220;-61
2023/07/05 10:11:33;;;;;;;3.27;1.70;;;21.30;56.80;;;24.95;36.46;100345.75;4976657;28;20272;-59
2023/07/05 10:14:12;;;;;;;3.73;2.17;;;21.50;56.30;;;24.75;36.49;100354.69;4964528;28;20201;-60
2023/07/05 10:16:46;;;;;;;3.03;2.00;;;21.70;55.90;;;25.22;36.92;100353.38;4970294;28;20700;-60
2023/07/05 10:19:30;;;;;;;3.50;1.97;;;21.90;56.30;;;25.80;34.89;100338.88;4956741;28;20306;-59
2023/07/05 10:22:07;;;;;;;2.20;2.03;;;22.00;55.40;;;25.82;35.44;100352.06;4955594;28;20224;-61
2023/07/05 10:24:43;;;;;;;2.43;2.03;;;22.30;55.20;;;25.47;35.37;100351.31;4956875;28;20192;-61
2023/07/05 10:27:26;;;;;;;2.07;1.80;;;22.30;54.70;;;25.18;35.63;100342.34;4971555;28;20220;-60